Time;durP1;ratioP1;P1;durP2;ratioP2;P2;SDS_P1;SDS_P2;PMS_P1;PMS_P2;Temp;Humidity;BMP_temperature;BMP_pressure;BME280_temperature;BME280_humidity;BME280_pressure;Samples;Min_cycle;Max_cycle;Signal;HPM_P1;HPM_P2
2024/02/01 00:00:36;;;;;;;0.52;0.52;;;3.20;99.90;;;;;;5112295;28;20201;-71
2024/02/01 00:03:03;;;;;;;0.70;0.70;;;3.20;99.90;;;;;;5112155;28;20188;-71
2024/02/01 00:05:31;;;;;;;0.73;0.73;;;3.20;99.90;;;;;;5110582;28;20560;-71
2024/02/01 00:07:57;;;;;;;0.50;0.50;;;3.30;99.90;;;;;;5112364;28;20199;-71
2024/02/01 00:13:44;;;;;;;0.60;0.60;;;3.40;99.90;;;;;;5112401;28;20194;-71
2024/02/01 00:16:25;;;;;;;0.50;0.50;;;3.40;99.90;;;;;;5110894;28;20677;-71
2024/02/01 00:22:13;;;;;;;0.70;0.70;;;3.40;99.90;;;;;;5112348;28;20217;-70
2024/02/01 00:24:39;;;;;;;0.60;0.60;;;3.40;99.90;;;;;;5112211;28;20187;-71
2024/02/01 00:27:04;;;;;;;0.60;0.60;;;3.40;99.90;;;;;;5112039;28;20192;-70
2024/02/01 00:32:52;;;;;;;0.68;0.68;;;3.40;99.90;;;;;;5091898;28;20199;-71
2024/02/01 00:35:23;;;;;;;0.80;0.80;;;3.30;99.90;;;;;;5091381;28;20199;-71
2024/02/01 00:41:11;;;;;;;0.70;0.70;;;3.20;99.90;;;;;;5091501;28;20554;-71
2024/02/01 00:43:37;;;;;;;0.50;0.50;;;3.20;99.90;;;;;;5091172;28;20738;-71
2024/02/01 00:46:03;;;;;;;0.60;0.60;;;3.20;99.90;;;;;;5091199;28;20245;-71
2024/02/01 00:48:29;;;;;;;0.68;0.68;;;3.10;99.90;;;;;;5099229;28;20204;-72
2024/02/01 00:50:55;;;;;;;0.50;0.50;;;3.10;99.90;;;;;;5114357;28;20205;-72
2024/02/01 00:53:23;;;;;;;0.50;0.50;;;3.10;99.90;;;;;;5114001;28;20199;-72
2024/02/01 00:55:49;;;;;;;0.50;0.50;;;3.00;99.90;;;;;;5114133;28;20584;-72
2024/02/01 00:58:15;;;;;;;0.70;0.70;;;3.00;99.90;;;;;;5115313;28;20636;-71
2024/02/01 01:00:40;;;;;;;0.50;0.50;;;3.00;99.90;;;;;;5115305;28;20191;-72
2024/02/01 01:03:06;;;;;;;0.63;0.63;;;3.00;99.90;;;;;;5115393;28;20192;-72
2024/02/01 01:05:33;;;;;;;0.60;0.60;;;2.90;99.90;;;;;;5115132;28;20198;-72
2024/02/01 01:07:58;;;;;;;0.70;0.70;;;2.90;99.90;;;;;;5115312;28;20191;-72
2024/02/01 01:10:24;;;;;;;0.60;0.60;;;2.90;99.90;;;;;;5115104;28;20278;-72
2024/02/01 01:12:50;;;;;;;0.50;0.50;;;2.90;99.90;;;;;;5115209;28;20615;-72
2024/02/01 01:15:16;;;;;;;0.50;0.50;;;2.80;99.90;;;;;;5114972;28;20227;-72
2024/02/01 01:17:41;;;;;;;0.80;0.80;;;2.80;99.90;;;;;;5115325;28;20202;-72
2024/02/01 01:20:08;;;;;;;0.65;0.65;;;2.70;99.90;;;;;;5115077;28;20187;-72
2024/02/01 01:22:34;;;;;;;0.70;0.70;;;2.80;99.90;;;;;;5114788;28;20183;-72
2024/02/01 01:25:00;;;;;;;0.55;0.55;;;2.70;99.90;;;;;;5114938;28;20584;-72
2024/02/01 01:27:25;;;;;;;0.70;0.70;;;2.60;99.90;;;;;;5094738;28;20279;-73
2024/02/01 01:29:52;;;;;;;0.70;0.70;;;2.70;99.90;;;;;;5094478;28;20188;-73
2024/02/01 01:32:17;;;;;;;1.65;1.55;;;2.60;99.90;;;;;;5094359;28;20551;-72
2024/02/01 01:34:43;;;;;;;0.60;0.60;;;2.60;99.90;;;;;;5093287;28;20199;-72
2024/02/01 01:37:09;;;;;;;0.60;0.60;;;2.70;99.90;;;;;;5094313;28;20215;-73
2024/02/01 01:39:35;;;;;;;0.70;0.70;;;2.60;99.90;;;;;;5094064;28;20805;-72
2024/02/01 01:42:00;;;;;;;0.60;0.60;;;2.60;99.90;;;;;;5094171;28;20249;-71
2024/02/01 01:44:26;;;;;;;0.70;0.70;;;2.60;99.90;;;;;;5098832;28;20206;-72
2024/02/01 01:46:53;;;;;;;0.63;0.63;;;2.70;99.90;;;;;;5114487;28;20196;-72
2024/02/01 01:49:19;;;;;;;0.60;0.60;;;2.70;99.90;;;;;;5114191;28;20663;-72
2024/02/01 01:51:48;;;;;;;0.68;0.68;;;2.70;99.90;;;;;;5114487;28;20241;-72
2024/02/01 01:54:14;;;;;;;0.70;0.70;;;2.70;99.90;;;;;;5114147;28;20328;-72
2024/02/01 01:56:41;;;;;;;3.80;2.90;;;2.70;99.90;;;;;;5114274;28;20662;-70
2024/02/01 01:59:07;;;;;;;0.60;0.60;;;2.70;99.90;;;;;;5115153;28;20188;-70
2024/02/01 02:01:36;;;;;;;0.70;0.70;;;2.70;99.90;;;;;;5112065;28;20660;-70
2024/02/01 02:04:05;;;;;;;0.60;0.60;;;2.70;99.90;;;;;;5114852;28;20187;-70
2024/02/01 02:06:30;;;;;;;0.60;0.60;;;2.60;99.90;;;;;;5114089;28;20195;-70
2024/02/01 02:08:57;;;;;;;0.60;0.60;;;2.60;99.90;;;;;;5115402;28;20203;-69
2024/02/01 02:11:23;;;;;;;0.60;0.60;;;2.60;99.90;;;;;;5116045;28;20548;-71
2024/02/01 02:13:49;;;;;;;0.60;0.60;;;2.70;99.90;;;;;;5116092;28;20280;-71
2024/02/01 02:16:18;;;;;;;0.80;0.80;;;2.60;99.90;;;;;;5116119;28;20702;-70
2024/02/01 02:18:44;;;;;;;0.60;0.60;;;2.60;99.90;;;;;;5115094;28;20211;-70
2024/02/01 02:21:14;;;;;;;0.60;0.60;;;2.70;99.90;;;;;;5114862;28;20191;-70
2024/02/01 02:23:40;;;;;;;0.70;0.70;;;2.60;99.90;;;;;;5098102;28;20253;-70
2024/02/01 02:26:08;;;;;;;0.60;0.60;;;2.60;99.90;;;;;;5095245;28;20595;-70
2024/02/01 02:28:38;;;;;;;0.60;0.60;;;2.60;99.90;;;;;;5095889;28;20248;-70
2024/02/01 02:31:07;;;;;;;0.70;0.70;;;2.60;99.90;;;;;;5095506;28;20184;-70
2024/02/01 02:33:32;;;;;;;0.60;0.60;;;2.60;99.90;;;;;;5093622;28;20208;-71
2024/02/01 02:35:58;;;;;;;0.70;0.70;;;2.50;99.90;;;;;;5095604;28;20223;-71
2024/02/01 02:38:24;;;;;;;0.90;0.90;;;2.50;99.90;;;;;;5092689;28;20587;-70
2024/02/01 02:40:50;;;;;;;0.65;0.65;;;2.50;99.90;;;;;;5098620;28;20279;-70
2024/02/01 02:43:16;;;;;;;0.47;0.47;;;2.50;99.90;;;;;;5113300;28;20328;-70
2024/02/01 02:45:42;;;;;;;0.52;0.52;;;2.50;99.90;;;;;;5114333;28;20195;-70
2024/02/01 02:48:09;;;;;;;0.70;0.70;;;2.50;99.90;;;;;;5114386;28;20677;-70
2024/02/01 02:50:36;;;;;;;0.77;0.77;;;2.60;99.90;;;;;;5114284;28;20264;-70
2024/02/01 02:53:02;;;;;;;0.70;0.70;;;2.60;99.90;;;;;;5114310;28;20190;-70
2024/02/01 02:55:27;;;;;;;0.68;0.68;;;2.60;99.90;;;;;;5113911;28;20656;-70
2024/02/01 02:57:53;;;;;;;0.70;0.70;;;2.70;99.90;;;;;;5112901;28;20279;-70
2024/02/01 03:00:19;;;;;;;0.80;0.80;;;2.70;99.90;;;;;;5114012;28;20252;-70
2024/02/01 03:02:48;;;;;;;0.70;0.70;;;2.60;99.90;;;;;;5114149;28;20183;-70
2024/02/01 03:05:16;;;;;;;0.73;0.73;;;2.60;99.90;;;;;;5113975;28;20252;-70
2024/02/01 03:07:43;;;;;;;0.60;0.60;;;2.60;99.90;;;;;;5113977;28;20262;-69
2024/02/01 03:10:09;;;;;;;0.68;0.68;;;2.60;99.90;;;;;;5112671;28;20195;-69
2024/02/01 03:12:34;;;;;;;0.80;0.80;;;2.60;99.90;;;;;;5112867;28;20192;-69
2024/02/01 03:15:00;;;;;;;0.90;0.90;;;2.70;99.90;;;;;;5113881;28;20208;-68
2024/02/01 03:17:26;;;;;;;0.75;0.75;;;2.80;99.90;;;;;;5113566;28;20207;-68
2024/02/01 03:19:52;;;;;;;0.68;0.68;;;2.70;99.90;;;;;;5113547;28;20535;-68
2024/02/01 03:22:19;;;;;;;0.68;0.68;;;2.70;99.90;;;;;;5113635;28;20194;-68
2024/02/01 03:24:46;;;;;;;0.73;0.73;;;2.70;99.90;;;;;;5113703;28;20194;-69
2024/02/01 03:27:15;;;;;;;0.70;0.70;;;2.80;99.90;;;;;;5113467;28;20663;-69
2024/02/01 03:29:43;;;;;;;0.73;0.73;;;2.70;99.90;;;;;;5113502;28;20223;-68
2024/02/01 03:32:09;;;;;;;0.55;0.55;;;2.70;99.90;;;;;;5112250;28;20278;-68
2024/02/01 03:34:35;;;;;;;0.60;0.60;;;2.80;99.90;;;;;;5113362;28;20306;-68
2024/02/01 03:37:03;;;;;;;0.70;0.70;;;2.80;99.90;;;;;;5113209;28;20203;-69
2024/02/01 03:39:29;;;;;;;0.80;0.80;;;2.70;99.90;;;;;;5113270;28;20548;-68
2024/02/01 03:41:56;;;;;;;0.65;0.65;;;2.70;99.90;;;;;;5113384;28;20252;-68
2024/02/01 03:44:23;;;;;;;0.60;0.60;;;2.60;99.90;;;;;;5113154;28;20188;-69
2024/02/01 03:46:51;;;;;;;0.80;0.80;;;2.70;99.90;;;;;;5113363;28;20199;-69
2024/02/01 03:49:17;;;;;;;0.50;0.50;;;2.70;99.90;;;;;;5113180;28;20191;-69
2024/02/01 03:51:43;;;;;;;0.77;0.77;;;2.60;99.90;;;;;;5113259;28;20229;-69
2024/02/01 03:54:09;;;;;;;0.60;0.60;;;2.70;99.90;;;;;;5113043;28;20636;-68
2024/02/01 03:56:39;;;;;;;0.70;0.70;;;2.70;99.90;;;;;;5112941;28;20331;-68
2024/02/01 03:59:08;;;;;;;0.63;0.63;;;2.60;99.90;;;;;;5113292;28;20591;-68
2024/02/01 04:01:35;;;;;;;0.70;0.70;;;2.60;99.90;;;;;;5106713;28;20675;-70
2024/02/01 04:04:02;;;;;;;0.50;0.50;;;2.70;99.90;;;;;;5112928;28;20188;-69
2024/02/01 04:06:28;;;;;;;0.68;0.68;;;2.60;99.90;;;;;;5094440;28;20220;-69
2024/02/01 04:08:55;;;;;;;0.70;0.70;;;2.60;99.90;;;;;;5113017;28;20266;-69
2024/02/01 04:11:47;;;;;;;0.80;0.80;;;2.50;99.90;;;;;;5113520;28;20640;-72
2024/02/01 04:14:13;;;;;;;0.70;0.70;;;2.50;99.90;;;;;;5107156;28;20336;-68
2024/02/01 04:16:39;;;;;;;0.60;0.60;;;2.50;99.90;;;;;;5092517;28;20204;-73
2024/02/01 04:19:05;;;;;;;0.70;0.70;;;2.60;99.90;;;;;;5092489;28;20195;-73
2024/02/01 04:21:30;;;;;;;0.52;0.52;;;2.60;99.90;;;;;;5074315;28;20192;-72
2024/02/01 04:23:56;;;;;;;0.70;0.70;;;2.60;99.90;;;;;;5094162;28;20230;-73
2024/02/01 04:26:22;;;;;;;2.00;1.85;;;2.50;99.90;;;;;;5095057;28;20318;-73
2024/02/01 04:28:51;;;;;;;0.60;0.60;;;2.50;99.90;;;;;;5096717;28;20195;-73
2024/02/01 04:31:17;;;;;;;0.80;0.80;;;2.50;99.90;;;;;;5096635;28;20196;-73
2024/02/01 04:33:43;;;;;;;0.60;0.60;;;2.60;99.90;;;;;;5087749;28;20207;-73
2024/02/01 04:36:09;;;;;;;0.70;0.70;;;2.60;99.90;;;;;;5116942;28;20211;-72
2024/02/01 04:38:38;;;;;;;0.80;0.80;;;2.60;99.90;;;;;;5116730;28;20234;-73
2024/02/01 04:41:10;;;;;;;0.55;0.55;;;2.60;99.90;;;;;;5116942;28;20183;-73
2024/02/01 04:43:36;;;;;;;0.68;0.68;;;2.50;99.90;;;;;;5116721;28;20271;-73
2024/02/01 04:46:02;;;;;;;0.60;0.60;;;2.40;99.90;;;;;;5098445;28;20191;-72
2024/02/01 04:48:29;;;;;;;0.60;0.60;;;2.40;99.90;;;;;;5116372;28;20191;-73
2024/02/01 04:50:55;;;;;;;0.60;0.60;;;2.40;99.90;;;;;;5116490;28;20306;-73
2024/02/01 04:53:20;;;;;;;0.70;0.70;;;2.30;99.90;;;;;;5116339;28;20229;-73
2024/02/01 04:55:49;;;;;;;0.50;0.50;;;2.40;99.90;;;;;;5098128;28;20690;-73
2024/02/01 04:58:19;;;;;;;0.60;0.60;;;2.30;99.90;;;;;;5116581;28;20651;-73
2024/02/01 05:00:45;;;;;;;0.70;0.70;;;2.20;99.90;;;;;;5116489;28;20573;-73
2024/02/01 05:03:14;;;;;;;0.70;0.70;;;2.30;99.90;;;;;;5116265;28;20191;-73
2024/02/01 05:05:45;;;;;;;0.60;0.60;;;2.30;99.90;;;;;;5116249;28;20693;-74
2024/02/01 05:08:14;;;;;;;0.70;0.70;;;2.30;99.90;;;;;;5116352;28;20184;-74
2024/02/01 05:10:43;;;;;;;0.70;0.70;;;2.30;99.90;;;;;;5111638;28;20204;-74
2024/02/01 05:13:12;;;;;;;0.80;0.80;;;2.30;99.90;;;;;;5114100;28;20647;-73
2024/02/01 05:15:41;;;;;;;0.70;0.70;;;2.10;99.90;;;;;;5115931;28;20206;-74
2024/02/01 05:18:08;;;;;;;0.60;0.60;;;2.10;99.90;;;;;;5116165;28;20194;-73
2024/02/01 05:20:34;;;;;;;0.50;0.50;;;2.20;99.90;;;;;;5115927;28;20194;-74
2024/02/01 05:23:00;;;;;;;0.63;0.63;;;2.20;99.90;;;;;;5116391;28;20191;-74
2024/02/01 05:25:27;;;;;;;0.60;0.60;;;2.10;99.90;;;;;;5115835;28;20195;-73
2024/02/01 05:27:53;;;;;;;0.70;0.70;;;2.20;99.90;;;;;;5116197;28;20236;-73
2024/02/01 05:30:23;;;;;;;0.70;0.70;;;2.20;99.90;;;;;;5115493;28;20568;-73
2024/02/01 05:32:52;;;;;;;0.60;0.60;;;2.20;99.90;;;;;;5116173;28;20222;-73
2024/02/01 05:35:29;;;;;;;5.30;1.58;;;2.10;99.90;;;;;;5114793;28;20560;-73
2024/02/01 05:38:02;;;;;;;0.70;0.70;;;2.10;99.90;;;;;;5116088;28;20199;-73
2024/02/01 05:40:29;;;;;;;0.70;0.70;;;2.20;99.90;;;;;;5115725;28;20685;-74
2024/02/01 05:42:55;;;;;;;0.70;0.70;;;2.20;99.90;;;;;;5097424;28;20196;-73
2024/02/01 05:45:20;;;;;;;0.50;0.50;;;2.10;99.90;;;;;;5097234;28;20195;-74
2024/02/01 05:47:46;;;;;;;0.73;0.73;;;2.20;99.90;;;;;;5115721;28;20199;-74
2024/02/01 05:50:17;;;;;;;0.60;0.60;;;2.10;99.90;;;;;;5097232;28;20198;-73
2024/02/01 05:52:42;;;;;;;0.60;0.60;;;2.10;99.90;;;;;;5115387;28;20192;-74
2024/02/01 05:55:11;;;;;;;0.75;0.75;;;2.20;99.90;;;;;;5115219;28;20254;-73
2024/02/01 05:57:37;;;;;;;0.57;0.57;;;2.10;99.90;;;;;;5115227;28;20736;-73
2024/02/01 06:00:06;;;;;;;0.60;0.60;;;2.10;99.90;;;;;;5115513;28;20655;-74
2024/02/01 06:02:32;;;;;;;0.70;0.70;;;2.10;99.90;;;;;;5096845;28;20336;-73
2024/02/01 06:04:59;;;;;;;0.60;0.60;;;2.20;99.90;;;;;;5115246;28;20188;-73
2024/02/01 06:07:27;;;;;;;0.60;0.60;;;2.20;99.90;;;;;;5106354;28;20203;-73
2024/02/01 06:09:53;;;;;;;0.63;0.63;;;2.20;99.90;;;;;;5094785;28;20192;-73
2024/02/01 06:12:18;;;;;;;0.65;0.65;;;2.30;99.90;;;;;;5094646;28;20207;-72
2024/02/01 06:14:44;;;;;;;0.60;0.60;;;2.20;99.90;;;;;;5094652;28;20193;-73
2024/02/01 06:17:10;;;;;;;0.63;0.63;;;2.20;99.90;;;;;;5094599;28;20320;-73
2024/02/01 06:19:36;;;;;;;0.80;0.80;;;2.20;99.90;;;;;;5094455;28;20199;-73
2024/02/01 06:22:05;;;;;;;0.70;0.70;;;2.30;99.90;;;;;;5094625;28;20181;-73
2024/02/01 06:24:35;;;;;;;0.70;0.70;;;2.30;99.90;;;;;;5076175;28;20230;-73
2024/02/01 06:27:01;;;;;;;0.60;0.60;;;2.20;99.90;;;;;;5110348;28;20203;-73
2024/02/01 06:29:27;;;;;;;0.60;0.60;;;2.20;99.90;;;;;;5114711;28;20200;-73
2024/02/01 06:31:53;;;;;;;0.60;0.60;;;2.10;99.90;;;;;;5114906;28;20282;-73
2024/02/01 06:34:26;;;;;;;0.80;0.80;;;2.10;99.90;;;;;;5114635;28;20270;-72
2024/02/01 06:36:58;;;;;;;0.70;0.70;;;2.10;99.90;;;;;;5114729;28;20227;-69
2024/02/01 06:42:04;;;;;;;0.60;0.60;;;2.00;99.90;;;;;;5114360;28;20191;-70
2024/02/01 06:44:46;;;;;;;0.63;0.63;;;1.90;99.90;;;;;;5112864;28;20223;-70
2024/02/01 06:47:12;;;;;;;0.70;0.70;;;1.90;99.90;;;;;;5096571;28;20604;-74
2024/02/01 06:50:00;;;;;;;0.80;0.80;;;1.90;99.90;;;;;;5111368;28;20207;-74
2024/02/01 06:52:39;;;;;;;6.43;2.15;;;1.90;99.90;;;;;;5095930;28;20252;-74
2024/02/01 07:03:12;;;;;;;0.60;0.60;;;1.90;99.90;;;;;;5111318;28;20191;-74
2024/02/01 07:08:26;;;;;;;0.68;0.68;;;1.90;99.90;;;;;;5093999;28;20203;-74
2024/02/01 07:11:14;;;;;;;0.70;0.70;;;1.80;99.90;;;;;;5093807;28;20744;-75
2024/02/01 07:17:26;;;;;;;0.70;0.70;;;2.00;99.90;;;;;;5093626;28;20756;-74
2024/02/01 07:19:23;;;;;;;0.60;0.60;;;2.10;99.90;;;;;;5082621;28;20266;-73
2024/02/01 07:24:45;;;;;;;0.70;0.70;;;2.00;99.90;;;;;;5114344;28;20195;-74
2024/02/01 07:57:43;;;;;;;0.60;0.60;;;2.20;99.90;;;;;;5092775;28;20299;-69
2024/02/01 08:00:17;;;;;;;0.60;0.60;;;2.30;99.90;;;;;;5102869;28;20187;-70
2024/02/01 08:03:00;;;;;;;0.68;0.68;;;2.30;99.90;;;;;;5094798;28;20192;-68
2024/02/01 08:08:14;;;;;;;0.75;0.75;;;2.50;99.90;;;;;;5113381;28;20283;-68
2024/02/01 08:10:40;;;;;;;0.80;0.80;;;2.50;99.90;;;;;;5112865;28;20274;-68
2024/02/01 08:13:07;;;;;;;0.50;0.50;;;2.50;99.90;;;;;;5094780;28;20717;-69
2024/02/01 08:15:37;;;;;;;0.60;0.60;;;2.50;99.90;;;;;;5112591;28;20180;-70
2024/02/01 08:18:08;;;;;;;0.60;0.60;;;2.50;99.90;;;;;;5112780;28;20546;-69
2024/02/01 08:20:38;;;;;;;0.70;0.70;;;2.60;99.90;;;;;;5112743;28;20237;-67
2024/02/01 08:23:04;;;;;;;0.60;0.60;;;2.60;99.90;;;;;;5112939;28;20191;-68
2024/02/01 08:25:30;;;;;;;0.73;0.73;;;2.60;99.90;;;;;;5112524;28;20187;-69
2024/02/01 08:28:00;;;;;;;0.90;0.90;;;2.50;99.90;;;;;;5112924;28;20240;-69
2024/02/01 08:30:30;;;;;;;0.70;0.70;;;2.50;99.90;;;;;;5094449;28;20192;-69
2024/02/01 08:33:05;;;;;;;0.80;0.80;;;2.50;99.90;;;;;;5112898;28;20191;-69
2024/02/01 08:35:34;;;;;;;0.70;0.70;;;2.60;99.90;;;;;;5112513;28;20198;-67
2024/02/01 08:38:04;;;;;;;1.75;1.48;;;2.60;99.90;;;;;;5094530;28;20200;-70
2024/02/01 08:40:30;;;;;;;0.60;0.60;;;2.60;99.90;;;;;;5094012;28;20557;-69
2024/02/01 08:43:00;;;;;;;0.80;0.80;;;2.60;99.90;;;;;;5112767;28;20195;-68
2024/02/01 08:45:27;;;;;;;0.80;0.80;;;2.60;99.90;;;;;;5094235;28;20705;-67
2024/02/01 08:48:00;;;;;;;0.70;0.70;;;2.60;99.90;;;;;;5112652;28;20217;-70
2024/02/01 08:50:28;;;;;;;0.80;0.80;;;2.50;99.90;;;;;;5112530;28;20282;-69
2024/02/01 08:52:54;;;;;;;0.70;0.70;;;2.50;99.90;;;;;;5094328;28;20188;-69
2024/02/01 08:55:20;;;;;;;0.70;0.70;;;2.50;99.90;;;;;;5093823;28;20239;-69
2024/02/01 08:57:46;;;;;;;0.63;0.63;;;2.50;99.90;;;;;;5112661;28;20191;-68
2024/02/01 09:00:26;;;;;;;0.77;0.77;;;2.60;99.90;;;;;;5083183;28;20220;-69
2024/02/01 09:03:06;;;;;;;1.42;1.33;;;2.70;99.90;;;;;;5074059;28;20275;-68
2024/02/01 09:05:45;;;;;;;0.65;0.65;;;2.70;99.90;;;;;;5073804;28;20249;-69
2024/02/01 09:08:12;;;;;;;0.68;0.68;;;2.70;99.90;;;;;;5074574;28;20224;-75
2024/02/01 09:10:38;;;;;;;0.70;0.70;;;2.70;99.90;;;;;;5094700;28;20196;-75
2024/02/01 09:13:04;;;;;;;0.55;0.55;;;2.70;99.90;;;;;;5096009;28;20556;-75
2024/02/01 09:15:35;;;;;;;2.70;1.88;;;2.80;99.90;;;;;;5109467;28;20199;-75
2024/02/01 09:18:01;;;;;;;0.80;0.80;;;2.80;99.90;;;;;;5098008;28;20199;-75
2024/02/01 09:20:27;;;;;;;0.60;0.60;;;2.90;99.90;;;;;;5097727;28;20199;-75
2024/02/01 09:22:54;;;;;;;0.60;0.60;;;3.00;99.90;;;;;;5116153;28;20565;-74
2024/02/01 09:25:25;;;;;;;0.60;0.60;;;3.00;99.90;;;;;;5115598;28;20183;-75
2024/02/01 09:27:52;;;;;;;0.68;0.68;;;3.00;99.90;;;;;;5116162;28;20560;-75
2024/02/01 09:30:20;;;;;;;0.68;0.68;;;3.00;99.90;;;;;;5115873;28;20179;-75
2024/02/01 09:32:49;;;;;;;0.80;0.80;;;3.10;99.90;;;;;;5097850;28;20557;-75
2024/02/01 09:35:17;;;;;;;0.60;0.60;;;3.40;99.90;;;;;;5115892;28;20188;-75
2024/02/01 09:37:43;;;;;;;0.50;0.50;;;3.60;99.90;;;;;;5084587;28;20663;-76
2024/02/01 09:40:10;;;;;;;0.60;0.60;;;3.90;99.90;;;;;;5095423;28;20535;-74
2024/02/01 09:42:38;;;;;;;0.60;0.60;;;4.20;99.90;;;;;;5077204;28;20914;-75
2024/02/01 09:45:05;;;;;;;0.60;0.60;;;4.30;99.90;;;;;;5095479;28;20190;-75
2024/02/01 09:47:41;;;;;;;0.77;0.77;;;4.40;99.90;;;;;;5095059;28;20671;-75
2024/02/01 09:50:09;;;;;;;0.60;0.60;;;4.60;99.90;;;;;;5095228;28;20192;-75
2024/02/01 09:52:39;;;;;;;0.60;0.60;;;4.60;99.90;;;;;;5095106;28;20207;-74
2024/02/01 09:55:16;;;;;;;0.75;0.75;;;4.30;99.90;;;;;;5095411;28;20224;-74
2024/02/01 09:57:49;;;;;;;0.60;0.60;;;4.00;99.90;;;;;;5094885;28;20579;-74
2024/02/01 10:00:18;;;;;;;0.70;0.70;;;3.70;99.90;;;;;;5094906;28;20644;-74
2024/02/01 10:02:51;;;;;;;0.52;0.52;;;3.50;99.90;;;;;;5094986;28;20568;-76
2024/02/01 10:05:19;;;;;;;0.70;0.70;;;3.40;99.90;;;;;;5076684;28;20218;-74
2024/02/01 10:07:44;;;;;;;0.68;0.68;;;3.30;99.90;;;;;;5095033;28;20192;-74
2024/02/01 10:10:13;;;;;;;0.70;0.70;;;3.30;99.90;;;;;;5077320;28;20287;-74
2024/02/01 10:12:41;;;;;;;0.70;0.70;;;3.30;99.90;;;;;;5115079;28;20237;-75
2024/02/01 10:15:10;;;;;;;0.70;0.70;;;3.30;99.90;;;;;;5115196;28;20650;-74
2024/02/01 10:17:45;;;;;;;1.00;1.00;;;3.40;99.90;;;;;;5113731;28;20700;-69
2024/02/01 10:20:33;;;;;;;0.65;0.65;;;3.40;99.90;;;;;;5114997;28;20190;-70
2024/02/01 10:23:03;;;;;;;0.80;0.80;;;3.50;99.90;;;;;;5113175;28;20678;-69
2024/02/01 10:25:38;;;;;;;0.60;0.60;;;3.60;99.90;;;;;;5113293;28;20566;-69
2024/02/01 10:28:06;;;;;;;0.70;0.70;;;3.60;99.90;;;;;;5114961;28;20599;-69
2024/02/01 10:30:33;;;;;;;0.70;0.70;;;3.60;99.90;;;;;;5114669;28;20192;-69
2024/02/01 10:33:03;;;;;;;0.60;0.60;;;3.60;99.90;;;;;;5107424;28;20222;-69
2024/02/01 10:35:33;;;;;;;0.57;0.57;;;3.60;99.90;;;;;;5075783;28;20200;-69
2024/02/01 10:38:12;;;;;;;0.63;0.63;;;3.60;99.90;;;;;;5094311;28;20562;-68
2024/02/01 10:40:43;;;;;;;0.60;0.60;;;3.60;99.90;;;;;;5093938;28;20188;-70
2024/02/01 10:43:13;;;;;;;0.70;0.70;;;3.50;99.90;;;;;;5073955;28;20227;-69
2024/02/01 10:45:42;;;;;;;0.73;0.73;;;3.40;99.90;;;;;;5093954;28;20196;-69
2024/02/01 10:48:26;;;;;;;0.60;0.60;;;3.30;99.90;;;;;;5094561;28;20187;-71
2024/02/01 10:50:52;;;;;;;0.85;0.85;;;3.30;99.90;;;;;;5082309;28;20777;-69
2024/02/01 10:53:20;;;;;;;0.70;0.70;;;3.30;99.90;;;;;;5114326;28;20218;-69
2024/02/01 10:55:48;;;;;;;0.70;0.70;;;3.30;99.90;;;;;;5114035;28;20223;-68
2024/02/01 10:58:18;;;;;;;0.60;0.60;;;3.50;99.90;;;;;;5096055;28;20187;-68
2024/02/01 11:00:45;;;;;;;0.60;0.60;;;3.90;99.90;;;;;;5098624;28;20193;-69
2024/02/01 11:03:11;;;;;;;0.60;0.60;;;4.30;99.90;;;;;;5093843;28;20180;-69
2024/02/01 11:05:38;;;;;;;0.60;0.60;;;4.60;99.90;;;;;;5093454;28;20193;-69
2024/02/01 11:08:16;;;;;;;0.55;0.55;;;4.80;99.90;;;;;;5108140;28;20286;-69
2024/02/01 11:11:00;;;;;;;0.70;0.70;;;4.90;99.90;;;;;;5113898;28;20183;-68
2024/02/01 11:13:29;;;;;;;0.80;0.80;;;5.00;99.90;;;;;;5113740;28;20288;-69
2024/02/01 11:15:58;;;;;;;0.70;0.70;;;5.20;99.90;;;;;;5113914;28;20204;-69
2024/02/01 11:18:24;;;;;;;0.80;0.80;;;5.40;99.90;;;;;;5113626;28;20196;-71
2024/02/01 11:20:55;;;;;;;0.60;0.60;;;5.50;99.90;;;;;;5113865;28;20559;-69
2024/02/01 11:23:21;;;;;;;0.70;0.70;;;5.50;99.90;;;;;;5113606;28;20577;-69
2024/02/01 11:25:49;;;;;;;0.80;0.80;;;5.70;99.90;;;;;;5113550;28;20216;-69
2024/02/01 11:28:28;;;;;;;0.77;0.77;;;5.80;99.90;;;;;;5113813;28;20535;-69
2024/02/01 11:30:54;;;;;;;0.50;0.50;;;5.90;99.90;;;;;;5094709;28;20667;-69
2024/02/01 11:33:25;;;;;;;0.80;0.80;;;6.00;99.90;;;;;;5092221;28;20192;-68
2024/02/01 11:35:55;;;;;;;0.70;0.70;;;5.80;99.90;;;;;;5093201;28;20207;-69
2024/02/01 11:38:21;;;;;;;0.60;0.60;;;5.90;99.90;;;;;;5093028;28;20187;-69
2024/02/01 11:40:46;;;;;;;0.80;0.80;;;6.20;99.90;;;;;;5074994;28;20289;-68
2024/02/01 11:43:12;;;;;;;0.52;0.52;;;6.40;99.90;;;;;;5093183;28;20189;-69
2024/02/01 11:45:38;;;;;;;1.25;1.20;;;6.50;99.90;;;;;;5074656;28;20210;-69
2024/02/01 11:48:06;;;;;;;0.75;0.75;;;6.40;99.90;;;;;;5074717;28;20226;-69
2024/02/01 11:50:32;;;;;;;0.70;0.70;;;6.20;99.90;;;;;;5074629;28;20192;-69
2024/02/01 11:53:05;;;;;;;0.80;0.80;;;6.00;99.90;;;;;;5092963;28;20184;-69
2024/02/01 11:55:33;;;;;;;0.70;0.70;;;5.60;99.90;;;;;;5092528;28;20691;-70
2024/02/01 11:58:00;;;;;;;0.60;0.60;;;5.20;99.90;;;;;;5092912;28;20196;-69
2024/02/01 12:00:27;;;;;;;0.60;0.60;;;5.00;99.90;;;;;;5084253;28;20200;-68
2024/02/01 12:02:52;;;;;;;0.60;0.60;;;4.90;99.90;;;;;;5095351;28;20199;-69
2024/02/01 12:05:23;;;;;;;0.60;0.60;;;4.80;99.90;;;;;;5113034;28;20191;-69
2024/02/01 12:07:49;;;;;;;0.70;0.70;;;4.70;99.90;;;;;;5113105;28;20195;-70
2024/02/01 12:10:16;;;;;;;0.60;0.60;;;4.70;99.90;;;;;;5113080;28;20202;-69
2024/02/01 12:12:44;;;;;;;0.80;0.80;;;4.60;99.90;;;;;;5112883;28;20685;-69
2024/02/01 12:15:12;;;;;;;0.88;0.88;;;4.60;99.90;;;;;;5112963;28;20554;-69
2024/02/01 12:17:42;;;;;;;0.70;0.70;;;4.50;99.90;;;;;;5112705;28;20226;-69
2024/02/01 12:20:13;;;;;;;0.75;0.75;;;4.40;99.90;;;;;;5094701;28;20278;-69
2024/02/01 12:22:39;;;;;;;0.80;0.80;;;4.50;99.90;;;;;;5112723;28;20191;-68
2024/02/01 12:25:17;;;;;;;0.57;0.57;;;4.50;99.90;;;;;;5111561;28;20192;-69
2024/02/01 12:27:47;;;;;;;0.63;0.63;;;4.60;99.90;;;;;;5092457;28;20187;-69
2024/02/01 12:30:15;;;;;;;0.70;0.70;;;4.50;99.90;;;;;;5074401;28;20211;-69
2024/02/01 12:32:44;;;;;;;0.80;0.80;;;4.60;99.90;;;;;;5074149;28;20192;-69
2024/02/01 12:35:19;;;;;;;0.68;0.68;;;4.60;99.90;;;;;;5092419;28;20192;-69
2024/02/01 12:37:45;;;;;;;0.70;0.70;;;4.50;99.90;;;;;;5092425;28;20199;-77
2024/02/01 12:40:13;;;;;;;0.60;0.60;;;4.50;99.90;;;;;;5092475;28;20285;-76
2024/02/01 12:42:41;;;;;;;1.35;1.25;;;4.40;99.90;;;;;;5092268;28;20211;-76
2024/02/01 12:45:17;;;;;;;0.70;0.70;;;4.40;99.90;;;;;;5094307;28;20199;-77
2024/02/01 12:47:47;;;;;;;0.63;0.63;;;4.30;99.90;;;;;;5096256;28;20562;-76
2024/02/01 12:50:15;;;;;;;0.80;0.80;;;4.20;99.90;;;;;;5096437;28;20659;-77
2024/02/01 12:52:42;;;;;;;0.70;0.70;;;4.20;99.90;;;;;;5096206;28;20215;-77
2024/02/01 12:55:08;;;;;;;0.60;0.60;;;4.10;99.90;;;;;;5096144;28;20224;-76
2024/02/01 12:57:34;;;;;;;0.68;0.68;;;4.10;99.90;;;;;;5095816;28;20656;-76
2024/02/01 13:00:00;;;;;;;0.70;0.70;;;4.10;99.90;;;;;;5105593;28;20203;-77
2024/02/01 13:02:26;;;;;;;0.50;0.50;;;4.00;99.90;;;;;;5098048;28;20199;-77
2024/02/01 13:04:55;;;;;;;0.70;0.70;;;4.00;99.90;;;;;;5098080;28;20717;-78
2024/02/01 13:07:22;;;;;;;0.60;0.60;;;4.00;99.90;;;;;;5097882;28;20219;-78
2024/02/01 13:09:47;;;;;;;0.60;0.60;;;3.90;99.90;;;;;;5116392;28;20647;-79
2024/02/01 13:12:21;;;;;;;0.70;0.70;;;3.90;99.90;;;;;;5116349;28;20224;-78
2024/02/01 13:15:00;;;;;;;0.68;0.68;;;4.00;99.90;;;;;;5116226;28;20647;-78
2024/02/01 13:17:31;;;;;;;0.60;0.60;;;4.00;99.90;;;;;;5097704;28;20207;-78
2024/02/01 13:19:56;;;;;;;1.67;1.42;;;4.00;99.90;;;;;;5116226;28;20199;-78
2024/02/01 13:22:24;;;;;;;0.70;0.70;;;4.00;99.90;;;;;;5115936;28;20195;-77
2024/02/01 13:24:50;;;;;;;0.70;0.70;;;4.00;99.90;;;;;;5097787;28;20195;-78
2024/02/01 13:27:16;;;;;;;0.80;0.80;;;4.00;99.90;;;;;;5115845;28;20199;-78
2024/02/01 13:29:44;;;;;;;0.60;0.60;;;4.10;99.90;;;;;;5097633;28;20276;-78
2024/02/01 13:32:12;;;;;;;0.70;0.70;;;4.00;99.90;;;;;;5115902;28;20198;-78
2024/02/01 13:34:39;;;;;;;0.80;0.80;;;4.00;99.90;;;;;;5097339;28;21194;-78
2024/02/01 13:37:12;;;;;;;0.80;0.80;;;4.00;99.90;;;;;;5097500;28;20215;-77
2024/02/01 13:39:41;;;;;;;0.80;0.80;;;3.90;99.90;;;;;;5115628;28;21236;-79
2024/02/01 13:42:06;;;;;;;0.65;0.65;;;3.80;99.90;;;;;;5115900;28;20662;-78
2024/02/01 13:44:33;;;;;;;0.60;0.60;;;3.80;99.90;;;;;;5115569;28;20191;-77
2024/02/01 13:47:04;;;;;;;0.70;0.70;;;3.80;99.90;;;;;;5115724;28;20681;-78
2024/02/01 13:49:30;;;;;;;0.80;0.80;;;3.90;99.90;;;;;;5115406;28;20189;-79
2024/02/01 13:51:56;;;;;;;0.70;0.70;;;3.90;99.90;;;;;;5115640;28;20220;-78
2024/02/01 13:54:22;;;;;;;0.80;0.80;;;3.80;99.90;;;;;;5116646;28;20629;-78
2024/02/01 13:56:47;;;;;;;0.60;0.60;;;3.80;99.90;;;;;;5096018;28;20280;-76
2024/02/01 13:59:13;;;;;;;0.63;0.63;;;3.90;99.90;;;;;;5115045;28;20294;-78
2024/02/01 14:01:39;;;;;;;0.70;0.70;;;3.80;99.90;;;;;;5115250;28;20195;-76
2024/02/01 14:04:05;;;;;;;0.70;0.70;;;3.80;99.90;;;;;;5115333;28;20217;-75
2024/02/01 14:06:32;;;;;;;0.70;0.70;;;3.80;99.90;;;;;;5096809;28;20259;-69
2024/02/01 14:08:57;;;;;;;0.60;0.60;;;3.70;99.90;;;;;;5115424;28;20570;-70